This is the latest recevied weather packets stored in our database for station/object CW79215. If no packets are shown the sender has not sent any weather packets the latest 10 day(s).
| Time | Temp. | Humidity | Pressure | Rain* | Wind** | Luminosity | Snow |
|---|---|---|---|---|---|---|---|
| 1788509142 | 26.11° C | 38% | 1029.7 hPa | - | - | - | - |
| 1788508242 | 24.44° C | 42% | 1029.8 hPa | - | - | - | - |
| 1788507342 | 25° C | 42% | 1029.9 hPa | - | - | - | - |
| 1788506441 | 23.89° C | 45% | 1030.1 hPa | - | - | - | - |
| 1788505541 | 22.78° C | 48% | 1030.2 hPa | - | - | - | - |
| 1788504641 | 21.11° C | 52% | 1030.4 hPa | - | - | - | - |
| 1788503741 | 20° C | 55% | 1030.4 hPa | - | - | - | - |
| 1788502841 | 17.78° C | 62% | 1030.5 hPa | - | - | - | - |
| 1788501940 | 16.67° C | 65% | 1030.6 hPa | - | - | - | - |
| 1788501040 | 15.56° C | 68% | 1030.8 hPa | - | - | - | - |
| 1788500140 | 14.44° C | 74% | 1030.9 hPa | - | - | - | - |
| 1788499240 | 13.89° C | 77% | 1031 hPa | - | - | - | - |
| 1788498340 | 13.89° C | 76% | 1031.1 hPa | - | - | - | - |
| 1788497440 | 14.44° C | 74% | 1031.1 hPa | - | - | - | - |
| 1788496567 | 13.89° C | 76% | 1031 hPa | - | - | - | - |
| 1788495640 | 13.89° C | 77% | 1030.9 hPa | - | - | - | - |
| 1788494740 | 13.89° C | 76% | 1031 hPa | - | - | - | - |
| 1788493840 | 13.89° C | 77% | 1031.2 hPa | - | - | - | - |
| 1788492940 | 13.89° C | 77% | 1031.3 hPa | - | - | - | - |
| 1788492040 | 14.44° C | 76% | 1031.5 hPa | - | - | - | - |
| 1788491140 | 14.44° C | 73% | 1031.5 hPa | - | - | - | - |
| 1788490239 | 14.44° C | 75% | 1031.5 hPa | - | - | - | - |
| 1788489341 | 14.44° C | 73% | 1031.7 hPa | - | - | - | - |
| 1788488441 | 15° C | 73% | 1031.9 hPa | - | - | - | - |
| 1788487541 | 15° C | 73% | 1031.9 hPa | - | - | - | - |
* Rain since midnight (hover to see other rain measurements)
** Current wind speed in m/s (hover to see current wind gust speed)